Time;durP1;ratioP1;P1;durP2;ratioP2;P2;SDS_P1;SDS_P2;PMS_P1;PMS_P2;Temp;Humidity;BMP_temperature;BMP_pressure;BME280_temperature;BME280_humidity;BME280_pressure;Samples;Min_cycle;Max_cycle;Signal;HPM_P1;HPM_P2
2022/09/14 00:00:46;;;;;;;5.63;2.50;;;12.60;99.90;;;;;;5087117;28;20059;-86
2022/09/14 00:03:13;;;;;;;5.65;2.20;;;12.60;99.90;;;;;;5103451;27;20501;-86
2022/09/14 00:05:39;;;;;;;6.38;2.28;;;12.70;99.90;;;;;;5079770;28;20047;-85
2022/09/14 00:08:04;;;;;;;6.40;2.10;;;12.70;99.90;;;;;;5078292;28;20393;-86
2022/09/14 00:10:30;;;;;;;6.65;2.22;;;12.80;99.90;;;;;;5084106;28;20051;-85
2022/09/14 00:12:56;;;;;;;6.60;1.92;;;12.90;99.90;;;;;;5065160;28;20044;-86
2022/09/14 00:15:22;;;;;;;7.30;2.15;;;12.90;99.90;;;;;;5079153;28;20086;-86
2022/09/14 00:17:48;;;;;;;6.35;2.30;;;13.00;99.90;;;;;;5093368;28;20075;-86
2022/09/14 00:20:13;;;;;;;8.60;2.30;;;13.00;99.90;;;;;;5076476;28;20446;-86
2022/09/14 00:22:39;;;;;;;8.43;2.17;;;13.00;99.90;;;;;;5043223;28;20047;-86
2022/09/14 00:25:05;;;;;;;4.90;2.10;;;13.10;99.90;;;;;;5071496;28;20040;-85
2022/09/14 00:27:32;;;;;;;7.18;2.10;;;13.10;99.90;;;;;;5077599;27;20662;-85
2022/09/14 00:29:57;;;;;;;7.50;2.05;;;13.10;99.90;;;;;;5086844;28;20443;-86
2022/09/14 00:32:23;;;;;;;7.13;1.92;;;13.00;99.90;;;;;;5075231;28;20082;-86
2022/09/14 00:34:49;;;;;;;6.82;2.30;;;13.00;99.90;;;;;;5072279;28;20100;-86
2022/09/14 00:37:15;;;;;;;9.00;2.25;;;12.90;99.90;;;;;;5068806;28;20047;-86
2022/09/14 00:39:40;;;;;;;5.45;1.88;;;12.80;99.90;;;;;;5068303;28;20055;-86
2022/09/14 00:42:06;;;;;;;5.20;2.13;;;12.80;99.90;;;;;;5098203;27;20352;-85
2022/09/14 00:44:32;;;;;;;7.05;2.53;;;12.70;99.90;;;;;;5080380;28;20453;-86
2022/09/14 00:47:01;;;;;;;8.75;2.60;;;12.70;99.90;;;;;;5069247;28;20062;-86
2022/09/14 00:49:38;;;;;;;7.57;2.47;;;12.60;99.90;;;;;;5081022;28;20082;-86
2022/09/14 00:52:07;;;;;;;5.78;2.50;;;12.70;99.90;;;;;;5078024;28;20050;-86
2022/09/14 00:55:07;;;;;;;8.13;2.30;;;12.60;99.90;;;;;;5083521;28;20492;-86
2022/09/14 00:57:47;;;;;;;7.40;2.33;;;12.60;99.90;;;;;;5086649;27;20039;-85
2022/09/14 01:00:17;;;;;;;6.85;2.33;;;12.60;99.90;;;;;;5072615;28;20048;-86
2022/09/14 01:02:43;;;;;;;5.47;2.63;;;12.60;99.90;;;;;;5075150;28;20040;-86
2022/09/14 01:05:10;;;;;;;8.68;2.80;;;12.60;99.90;;;;;;5094878;28;20035;-86
2022/09/14 01:07:51;;;;;;;8.48;2.80;;;12.50;99.90;;;;;;5073541;28;20125;-86
2022/09/14 01:10:41;;;;;;;6.40;2.63;;;12.60;99.90;;;;;;5076979;28;20039;-85
2022/09/14 01:13:35;;;;;;;7.38;3.25;;;12.50;99.90;;;;;;5095617;27;20043;-86
2022/09/14 01:16:07;;;;;;;8.18;2.67;;;12.50;99.90;;;;;;5080508;28;20051;-86
2022/09/14 01:18:42;;;;;;;7.57;2.75;;;12.40;99.90;;;;;;5089183;28;20072;-86
2022/09/14 01:21:37;;;;;;;8.50;3.00;;;12.40;99.90;;;;;;5097643;28;20460;-85
2022/09/14 01:24:16;;;;;;;10.07;2.90;;;12.30;99.90;;;;;;5067679;28;20047;-86
2022/09/14 01:27:03;;;;;;;6.70;2.88;;;12.30;99.90;;;;;;5080233;28;20044;-86
2022/09/14 01:30:06;;;;;;;7.78;2.95;;;12.20;99.90;;;;;;5078256;28;20040;-86
2022/09/14 01:32:45;;;;;;;7.20;3.00;;;12.20;99.90;;;;;;5091302;28;20048;-86
2022/09/14 01:35:31;;;;;;;6.55;2.80;;;12.10;99.90;;;;;;5094246;28;20403;-86
2022/09/14 01:38:02;;;;;;;7.75;3.10;;;12.10;99.90;;;;;;5092214;28;20500;-86
2022/09/14 01:40:45;;;;;;;7.45;3.20;;;12.10;99.90;;;;;;5089428;28;20040;-85
2022/09/14 01:43:14;;;;;;;9.70;3.83;;;12.20;99.90;;;;;;5097763;28;20376;-86
2022/09/14 01:45:48;;;;;;;5.93;3.10;;;12.10;99.90;;;;;;5096450;28;20052;-86
2022/09/14 01:48:18;;;;;;;8.48;3.55;;;12.10;99.90;;;;;;5083853;28;20051;-86
2022/09/14 01:50:49;;;;;;;5.95;3.38;;;12.10;99.90;;;;;;5093318;28;20052;-86
2022/09/14 01:53:23;;;;;;;7.03;3.58;;;12.10;99.90;;;;;;5076688;28;20176;-85
2022/09/14 01:56:00;;;;;;;;;;;12.10;99.90;;;;;;5072917;28;20044;-86
2022/09/14 01:58:33;;;;;;;7.35;3.40;;;12.00;99.90;;;;;;5067264;28;19948;-85
2022/09/14 02:01:03;;;;;;;6.93;3.13;;;12.10;99.90;;;;;;5072807;28;20474;-86
2022/09/14 02:03:35;;;;;;;8.77;4.05;;;12.20;99.90;;;;;;5077518;28;20049;-86
2022/09/14 02:06:15;;;;;;;10.63;3.33;;;12.30;99.90;;;;;;5090612;28;20181;-86
2022/09/14 02:08:40;;;;;;;6.97;3.78;;;12.30;99.90;;;;;;5091658;28;20407;-86
2022/09/14 02:11:07;;;;;;;6.55;3.17;;;12.30;99.90;;;;;;5076670;28;20039;-86
2022/09/14 02:13:32;;;;;;;9.20;3.75;;;12.40;99.90;;;;;;5094119;28;20046;-87
2022/09/14 02:15:58;;;;;;;9.25;3.50;;;12.40;99.90;;;;;;5066371;28;20043;-86
2022/09/14 02:18:24;;;;;;;6.72;2.92;;;12.40;99.90;;;;;;5086832;28;20051;-85
2022/09/14 02:21:00;;;;;;;11.52;3.15;;;12.40;99.90;;;;;;5095647;28;20437;-85
2022/09/14 02:23:26;;;;;;;8.55;3.47;;;12.50;99.90;;;;;;5062964;28;20567;-86
2022/09/14 02:25:52;;;;;;;7.50;3.40;;;12.50;99.90;;;;;;5094621;28;20040;-87
2022/09/14 02:28:18;;;;;;;7.18;3.50;;;12.50;99.90;;;;;;5078975;28;20380;-85
2022/09/14 02:31:16;;;;;;;6.78;3.50;;;12.40;99.90;;;;;;5090759;28;20104;-86
2022/09/14 02:33:48;;;;;;;8.65;3.20;;;12.50;99.90;;;;;;5070999;28;20042;-86
2022/09/14 02:36:31;;;;;;;7.82;3.65;;;12.50;99.90;;;;;;5092710;28;20043;-86
2022/09/14 02:39:06;;;;;;;9.73;3.60;;;12.50;99.90;;;;;;5089768;28;20051;-86
2022/09/14 02:42:06;;;;;;;9.50;4.18;;;12.50;99.90;;;;;;5103051;28;20383;-86
2022/09/14 02:44:57;;;;;;;8.95;3.65;;;12.50;99.90;;;;;;5094938;28;20122;-86
2022/09/14 02:47:33;;;;;;;7.75;3.40;;;12.50;99.90;;;;;;5098878;27;20094;-85
2022/09/14 02:50:31;;;;;;;4.72;3.10;;;12.50;99.90;;;;;;5093750;28;20104;-85
2022/09/14 02:53:34;;;;;;;10.82;3.47;;;12.50;99.90;;;;;;5095641;28;20043;-85
2022/09/14 02:56:06;;;;;;;7.40;3.60;;;12.60;99.90;;;;;;5076733;28;20040;-86
2022/09/14 02:58:38;;;;;;;9.20;3.22;;;12.50;99.90;;;;;;5093833;28;20031;-86
2022/09/14 03:01:06;;;;;;;9.68;3.58;;;12.50;99.90;;;;;;5094605;28;20035;-85
2022/09/14 03:03:32;;;;;;;6.55;3.30;;;12.50;99.90;;;;;;5092340;28;20135;-85
2022/09/14 03:05:58;;;;;;;8.10;3.25;;;12.60;99.90;;;;;;5078919;28;20032;-85
2022/09/14 03:08:25;;;;;;;8.48;3.33;;;12.60;99.90;;;;;;5081567;28;20036;-86
2022/09/14 03:10:51;;;;;;;6.55;3.58;;;12.60;99.90;;;;;;5087569;28;20047;-86
2022/09/14 03:13:17;;;;;;;6.20;3.67;;;12.70;99.90;;;;;;5079733;28;20039;-85
2022/09/14 03:15:43;;;;;;;5.97;3.28;;;12.60;99.90;;;;;;5072824;28;20044;-86
2022/09/14 03:18:10;;;;;;;7.07;3.38;;;12.60;99.90;;;;;;5072100;28;20136;-85
2022/09/14 03:20:35;;;;;;;4.45;3.40;;;12.60;99.90;;;;;;5097968;28;20108;-85
2022/09/14 03:23:02;;;;;;;8.32;3.75;;;12.60;99.90;;;;;;5086657;28;20044;-86
2022/09/14 03:25:28;;;;;;;6.68;3.60;;;12.60;99.90;;;;;;5102005;28;20115;-85
2022/09/14 03:27:58;;;;;;;9.48;3.80;;;12.60;99.90;;;;;;5097599;28;20127;-86
2022/09/14 03:30:26;;;;;;;6.85;3.28;;;12.70;99.90;;;;;;5084130;28;20055;-85
2022/09/14 03:32:52;;;;;;;9.45;3.80;;;12.60;99.90;;;;;;5079597;28;20086;-87
2022/09/14 03:35:18;;;;;;;6.88;3.83;;;12.70;99.90;;;;;;5113359;28;20040;-86
2022/09/14 03:37:45;;;;;;;8.77;3.88;;;12.70;99.90;;;;;;5089241;28;20118;-86
2022/09/14 03:40:13;;;;;;;8.40;3.55;;;12.70;99.90;;;;;;5094972;27;20075;-87
2022/09/14 03:42:47;;;;;;;8.57;3.75;;;12.70;99.90;;;;;;5123182;28;20028;-86
2022/09/14 03:45:15;;;;;;;5.80;3.72;;;12.70;99.90;;;;;;5121119;28;20056;-85
2022/09/14 03:47:41;;;;;;;10.77;3.88;;;12.70;99.90;;;;;;5117679;28;20032;-86
2022/09/14 03:50:09;;;;;;;6.35;3.75;;;12.80;99.90;;;;;;5090757;28;20048;-86
2022/09/14 03:52:35;;;;;;;9.15;3.92;;;12.80;99.90;;;;;;5093721;28;20395;-85
2022/09/14 03:55:02;;;;;;;8.85;4.60;;;12.70;99.90;;;;;;5094709;28;20218;-85
2022/09/14 03:57:28;;;;;;;7.70;3.60;;;12.80;99.90;;;;;;5091077;28;20050;-85
2022/09/14 03:59:53;;;;;;;7.75;3.80;;;12.90;99.90;;;;;;5070726;28;20056;-85
2022/09/14 04:02:19;;;;;;;7.65;3.60;;;12.90;99.90;;;;;;5068270;28;20036;-86
2022/09/14 04:04:47;;;;;;;8.30;4.10;;;12.90;99.90;;;;;;5061862;28;20162;-85
2022/09/14 04:07:14;;;;;;;7.43;4.10;;;12.90;99.90;;;;;;5086809;28;20073;-86
2022/09/14 04:09:40;;;;;;;8.25;4.43;;;12.90;99.90;;;;;;5078294;28;20043;-85
2022/09/14 04:12:06;;;;;;;10.68;4.07;;;12.90;99.90;;;;;;5075743;28;20039;-86
2022/09/14 04:14:32;;;;;;;10.95;4.20;;;12.90;99.90;;;;;;5060946;28;20048;-85
2022/09/14 04:16:58;;;;;;;7.97;4.22;;;12.90;99.90;;;;;;5068301;28;20040;-85
2022/09/14 04:19:23;;;;;;;8.90;4.25;;;12.90;99.90;;;;;;5083226;28;20039;-85
2022/09/14 04:21:49;;;;;;;8.48;3.92;;;12.90;99.90;;;;;;5097849;28;20043;-86
2022/09/14 04:24:15;;;;;;;9.07;4.53;;;12.90;99.90;;;;;;5062153;28;20054;-85
2022/09/14 04:26:42;;;;;;;8.75;4.10;;;12.90;99.90;;;;;;5084851;28;20176;-85
2022/09/14 04:29:09;;;;;;;10.98;4.28;;;12.90;99.90;;;;;;5090311;28;20542;-85
2022/09/14 04:31:35;;;;;;;9.02;3.95;;;12.90;99.90;;;;;;5098273;28;20036;-85
2022/09/14 04:34:01;;;;;;;8.15;3.80;;;12.90;99.90;;;;;;5091980;28;20054;-86
2022/09/14 04:36:29;;;;;;;8.88;4.57;;;12.90;99.90;;;;;;5079704;28;20035;-85
2022/09/14 04:38:57;;;;;;;6.45;4.28;;;12.90;99.90;;;;;;5068163;28;20051;-85
2022/09/14 04:41:23;;;;;;;7.95;4.30;;;12.90;99.90;;;;;;5079054;28;20070;-85
2022/09/14 04:43:50;;;;;;;8.18;4.38;;;12.90;99.90;;;;;;5095227;28;20044;-85
2022/09/14 04:46:22;;;;;;;8.68;4.28;;;12.90;99.90;;;;;;5082556;28;20077;-86
2022/09/14 04:48:49;;;;;;;7.38;4.25;;;13.00;99.90;;;;;;5089816;28;20052;-86
2022/09/14 04:51:24;;;;;;;6.68;4.13;;;13.00;99.90;;;;;;5062163;27;20043;-85
2022/09/14 04:53:52;;;;;;;8.02;3.67;;;13.00;99.90;;;;;;5102761;28;20107;-86
2022/09/14 04:56:21;;;;;;;8.15;4.25;;;13.00;99.90;;;;;;5066820;28;20040;-85
2022/09/14 04:58:49;;;;;;;9.82;4.40;;;12.90;99.90;;;;;;5091810;28;20132;-86
2022/09/14 05:01:18;;;;;;;7.78;4.43;;;13.00;99.90;;;;;;5068088;28;20048;-86
2022/09/14 05:03:44;;;;;;;6.70;4.50;;;12.90;99.90;;;;;;5081727;27;20059;-85
2022/09/14 05:06:13;;;;;;;7.10;3.88;;;12.90;99.90;;;;;;5100184;28;20399;-85
2022/09/14 05:08:42;;;;;;;7.65;4.60;;;12.90;99.90;;;;;;5068568;28;20044;-86
2022/09/14 05:11:11;;;;;;;7.32;4.00;;;13.00;99.90;;;;;;5086240;28;20184;-86
2022/09/14 05:13:37;;;;;;;9.27;4.13;;;13.00;99.90;;;;;;5094760;28;20361;-86
2022/09/14 05:16:24;;;;;;;8.13;3.72;;;13.00;99.90;;;;;;5095043;28;20045;-85
2022/09/14 05:18:52;;;;;;;8.13;4.20;;;13.00;99.90;;;;;;5081940;28;20515;-85
2022/09/14 05:21:19;;;;;;;9.25;4.80;;;13.00;99.90;;;;;;5071709;28;20050;-85
2022/09/14 05:23:46;;;;;;;11.13;5.00;;;13.00;99.90;;;;;;5084362;28;20043;-86
2022/09/14 05:26:12;;;;;;;7.63;4.00;;;13.10;99.90;;;;;;5088177;28;20144;-85
2022/09/14 05:28:38;;;;;;;7.07;4.40;;;13.10;99.90;;;;;;5069872;28;20066;-86
2022/09/14 05:31:09;;;;;;;9.88;4.70;;;13.10;99.90;;;;;;5061624;28;20059;-85
2022/09/14 05:33:35;;;;;;;8.40;4.18;;;13.10;99.90;;;;;;5094771;28;20035;-85
2022/09/14 05:36:06;;;;;;;6.95;4.00;;;13.10;99.90;;;;;;5060806;28;20189;-85
2022/09/14 05:38:35;;;;;;;7.93;4.40;;;13.10;99.90;;;;;;5084693;28;20118;-86
2022/09/14 05:41:01;;;;;;;6.90;3.88;;;13.10;99.90;;;;;;5070907;28;20089;-86
2022/09/14 05:43:28;;;;;;;7.65;3.95;;;13.10;99.90;;;;;;5093564;28;20040;-86
2022/09/14 05:45:53;;;;;;;9.75;4.22;;;13.10;99.90;;;;;;5093965;28;20047;-86
2022/09/14 05:48:19;;;;;;;9.30;4.40;;;13.10;99.90;;;;;;5091796;28;20040;-85
2022/09/14 05:50:45;;;;;;;5.90;4.20;;;13.10;99.90;;;;;;5087147;28;20047;-85
2022/09/14 05:53:11;;;;;;;10.00;4.68;;;13.10;99.90;;;;;;5060721;28;20077;-86
2022/09/14 05:55:37;;;;;;;10.07;4.80;;;13.10;99.90;;;;;;5074565;28;20399;-85
2022/09/14 05:58:03;;;;;;;11.13;4.22;;;13.20;99.90;;;;;;5077298;28;20035;-85
2022/09/14 06:00:30;;;;;;;7.13;4.20;;;13.20;99.90;;;;;;5095614;28;20463;-85
2022/09/14 06:02:55;;;;;;;8.30;4.22;;;13.20;99.90;;;;;;5061152;28;20040;-85
2022/09/14 06:05:21;;;;;;;6.93;3.83;;;13.20;99.90;;;;;;5059171;28;20036;-85
2022/09/14 06:07:52;;;;;;;10.52;4.38;;;13.20;99.90;;;;;;5078224;28;20051;-85
2022/09/14 06:10:18;;;;;;;6.47;4.20;;;13.30;99.90;;;;;;5072929;28;20068;-86
2022/09/14 06:12:44;;;;;;;5.75;3.80;;;13.20;99.90;;;;;;5092356;28;20051;-85
2022/09/14 06:15:10;;;;;;;6.95;4.05;;;13.30;99.90;;;;;;5092417;28;20206;-86
2022/09/14 06:17:36;;;;;;;10.38;5.00;;;13.30;99.90;;;;;;5092870;28;20043;-86
2022/09/14 06:20:04;;;;;;;12.35;4.57;;;13.40;99.90;;;;;;5075454;28;20044;-86
2022/09/14 06:22:30;;;;;;;8.25;4.50;;;13.40;99.90;;;;;;5091900;28;20064;-86
2022/09/14 06:24:56;;;;;;;7.90;4.32;;;13.50;99.90;;;;;;5073164;28;20114;-85
2022/09/14 06:27:22;;;;;;;8.95;4.43;;;13.50;99.90;;;;;;5073017;28;20272;-85
2022/09/14 06:29:51;;;;;;;9.02;4.30;;;13.60;99.90;;;;;;5095938;28;20047;-86
2022/09/14 06:32:18;;;;;;;9.60;4.40;;;13.60;99.90;;;;;;5070204;28;20044;-85
2022/09/14 06:34:44;;;;;;;10.27;3.92;;;13.70;99.90;;;;;;5083507;28;20459;-85
2022/09/14 06:37:13;;;;;;;8.32;4.20;;;13.70;99.90;;;;;;5078738;28;20484;-87
2022/09/14 06:39:39;;;;;;;10.43;4.07;;;13.80;99.90;;;;;;5070864;28;20046;-86
2022/09/14 06:42:04;;;;;;;7.03;4.10;;;13.80;99.90;;;;;;5068916;28;20044;-86
2022/09/14 06:44:33;;;;;;;11.20;4.00;;;13.90;99.90;;;;;;5082976;28;20048;-85
2022/09/14 06:46:59;;;;;;;10.38;4.65;;;13.90;99.90;;;;;;5080796;28;20100;-84
2022/09/14 06:49:25;;;;;;;10.00;4.32;;;14.00;99.90;;;;;;5076731;28;20047;-85
2022/09/14 06:51:50;;;;;;;8.57;4.10;;;14.10;99.90;;;;;;5062793;28;20047;-85
2022/09/14 06:54:17;;;;;;;10.68;4.13;;;14.10;99.90;;;;;;5082868;28;20032;-86
2022/09/14 06:56:44;;;;;;;11.27;4.22;;;14.10;99.90;;;;;;5099427;28;20040;-85
2022/09/14 06:59:12;;;;;;;9.07;4.07;;;14.20;99.90;;;;;;5079922;28;20045;-86
2022/09/14 07:01:38;;;;;;;5.93;3.90;;;14.20;99.90;;;;;;5093121;28;20039;-85
2022/09/14 07:04:05;;;;;;;6.18;3.85;;;14.30;99.90;;;;;;5073837;28;20325;-85
2022/09/14 07:06:37;;;;;;;8.55;3.80;;;14.40;99.90;;;;;;5085908;28;20043;-84
2022/09/14 07:09:03;;;;;;;8.17;4.10;;;14.50;99.90;;;;;;5085731;28;20054;-84
2022/09/14 07:11:30;;;;;;;8.68;3.63;;;14.50;99.90;;;;;;5093173;28;20118;-84
2022/09/14 07:13:57;;;;;;;6.63;3.75;;;14.60;99.90;;;;;;5076172;28;20075;-84
2022/09/14 07:16:24;;;;;;;7.78;3.95;;;14.60;99.90;;;;;;5093211;28;20093;-84
2022/09/14 07:18:57;;;;;;;12.43;3.72;;;14.70;99.90;;;;;;5076413;28;20097;-84
2022/09/14 07:21:24;;;;;;;9.25;3.67;;;14.70;99.90;;;;;;5090010;28;20043;-84
2022/09/14 07:23:50;;;;;;;5.85;3.40;;;14.70;99.90;;;;;;5081850;28;20071;-86
2022/09/14 07:26:22;;;;;;;6.93;3.70;;;14.80;99.90;;;;;;5090438;28;20118;-86
2022/09/14 07:28:51;;;;;;;8.07;3.38;;;14.90;99.90;;;;;;5083288;28;20097;-86
2022/09/14 07:31:33;;;;;;;6.05;3.83;;;15.00;99.90;;;;;;5090159;28;20368;-85
2022/09/14 07:34:02;;;;;;;10.32;3.83;;;15.00;99.90;;;;;;5092155;28;20046;-88
2022/09/14 07:36:29;;;;;;;8.52;3.50;;;15.10;99.90;;;;;;5090867;28;20164;-86
2022/09/14 07:38:55;;;;;;;7.57;3.10;;;15.20;99.90;;;;;;5086695;28;20497;-86
2022/09/14 07:41:23;;;;;;;8.90;3.40;;;15.20;99.90;;;;;;5084451;28;20134;-85
2022/09/14 07:43:52;;;;;;;10.75;3.17;;;15.30;99.90;;;;;;5078533;28;20071;-86
2022/09/14 07:46:19;;;;;;;6.28;3.08;;;15.30;99.90;;;;;;5060930;28;20203;-85
2022/09/14 07:48:45;;;;;;;6.80;2.95;;;15.40;99.90;;;;;;5085745;28;20040;-90
2022/09/14 07:51:11;;;;;;;8.05;3.00;;;15.50;99.90;;;;;;5070413;28;20043;-86
2022/09/14 07:53:41;;;;;;;4.63;2.83;;;15.60;99.90;;;;;;5089431;28;20040;-86
2022/09/14 07:56:08;;;;;;;5.95;2.25;;;15.60;99.90;;;;;;5076415;28;20117;-85
2022/09/14 07:58:33;;;;;;;7.70;2.50;;;15.70;99.90;;;;;;5090107;28;20051;-86
2022/09/14 08:01:11;;;;;;;5.78;2.30;;;15.80;99.90;;;;;;5058640;28;20044;-86
2022/09/14 08:03:39;;;;;;;7.43;2.20;;;15.80;99.90;;;;;;5093671;28;20036;-85
2022/09/14 08:06:09;;;;;;;8.65;2.53;;;15.90;99.90;;;;;;5074610;28;20351;-87
2022/09/14 08:08:38;;;;;;;6.50;2.08;;;15.90;99.90;;;;;;5091439;28;20684;-88
2022/09/14 08:11:07;;;;;;;9.02;2.40;;;15.90;99.90;;;;;;5074181;28;20051;-87
2022/09/14 08:13:34;;;;;;;7.35;2.03;;;15.90;99.90;;;;;;5091891;28;20036;-87
2022/09/14 08:16:00;;;;;;;9.57;2.45;;;15.90;99.90;;;;;;5073889;28;20035;-88
2022/09/14 08:18:28;;;;;;;8.57;2.10;;;15.90;99.90;;;;;;5080752;27;20043;-88
2022/09/14 08:20:54;;;;;;;7.32;2.28;;;15.90;99.90;;;;;;5073694;28;20072;-88
2022/09/14 08:23:20;;;;;;;7.80;2.00;;;16.00;99.90;;;;;;5080507;28;20040;-89
2022/09/14 08:25:46;;;;;;;7.75;2.65;;;16.00;99.90;;;;;;5089018;28;20040;-87
2022/09/14 08:28:12;;;;;;;7.30;1.90;;;16.00;99.90;;;;;;5093988;28;20395;-88
2022/09/14 08:30:37;;;;;;;8.73;2.25;;;16.10;99.90;;;;;;5075359;28;20090;-88
2022/09/14 08:33:03;;;;;;;7.82;2.00;;;16.20;99.90;;;;;;5094784;28;20535;-88
2022/09/14 08:35:32;;;;;;;7.78;2.10;;;16.20;99.90;;;;;;5076452;28;20047;-87
2022/09/14 08:37:58;;;;;;;8.10;2.15;;;16.20;99.90;;;;;;5077613;28;20032;-86
2022/09/14 08:40:27;;;;;;;10.27;2.30;;;16.30;99.90;;;;;;5070595;28;20384;-86
2022/09/14 08:42:56;;;;;;;6.45;1.67;;;16.30;99.90;;;;;;5084756;28;20176;-87
2022/09/14 08:45:23;;;;;;;6.50;1.88;;;16.40;99.90;;;;;;5099140;28;20060;-87
2022/09/14 08:47:52;;;;;;;7.93;1.50;;;16.50;99.90;;;;;;5087284;28;20249;-87
2022/09/14 08:50:20;;;;;;;5.35;1.90;;;16.60;99.90;;;;;;5075771;28;20081;-87
2022/09/14 08:52:51;;;;;;;9.80;1.80;;;16.60;99.90;;;;;;5091354;28;20397;-87
2022/09/14 08:55:47;;;;;;;7.10;1.88;;;16.70;99.90;;;;;;5075444;28;20495;-87
2022/09/14 08:58:32;;;;;;;6.50;1.98;;;16.80;99.90;;;;;;5078848;28;20105;-87
2022/09/14 09:01:19;;;;;;;8.63;1.67;;;16.90;99.90;;;;;;5082331;28;20044;-88
2022/09/14 09:04:06;;;;;;;10.23;2.05;;;16.90;99.90;;;;;;5065600;28;20051;-87
2022/09/14 09:06:56;;;;;;;11.23;2.20;;;17.00;99.90;;;;;;5086728;28;20522;-87
2022/09/14 09:09:40;;;;;;;10.98;2.00;;;17.00;99.90;;;;;;5087070;28;20075;-87
2022/09/14 09:12:11;;;;;;;7.47;1.90;;;17.20;99.90;;;;;;5067873;28;20048;-86
2022/09/14 09:14:54;;;;;;;8.38;2.47;;;17.40;99.90;;;;;;5075863;28;20050;-87
2022/09/14 09:17:40;;;;;;;8.45;1.80;;;17.60;99.90;;;;;;5075873;28;20043;-87
2022/09/14 09:20:14;;;;;;;11.75;1.98;;;17.70;99.90;;;;;;5076590;28;20040;-88
2022/09/14 09:22:44;;;;;;;7.03;1.77;;;17.80;99.90;;;;;;5076208;28;20039;-87
2022/09/14 09:25:30;;;;;;;8.27;1.77;;;17.80;99.90;;;;;;5091206;28;20043;-89
2022/09/14 09:28:08;;;;;;;6.95;1.77;;;17.80;99.90;;;;;;5080361;28;20411;-87
2022/09/14 09:30:36;;;;;;;7.47;1.42;;;17.90;99.90;;;;;;5077712;28;20108;-88
2022/09/14 09:33:03;;;;;;;7.57;1.70;;;17.80;99.90;;;;;;5080672;28;20066;-86
2022/09/14 09:35:32;;;;;;;12.27;1.98;;;17.90;99.90;;;;;;5075873;28;20495;-88
2022/09/14 09:37:58;;;;;;;5.68;1.70;;;18.10;99.90;;;;;;5070832;28;20050;-87
2022/09/14 09:40:43;;;;;;;10.75;1.70;;;18.30;99.90;;;;;;5055174;28;20047;-87
2022/09/14 09:43:25;;;;;;;;;;;;;;;;;;;;;
2022/09/14 09:46:00;;;;;;;12.52;1.80;;;18.60;99.90;;;;;;5087656;28;20094;-86
2022/09/14 09:48:39;;;;;;;8.65;1.67;;;18.70;99.90;;;;;;5071073;28;20059;-87
2022/09/14 09:51:13;;;;;;;7.95;1.70;;;18.90;99.90;;;;;;5067123;28;20068;-88
2022/09/14 09:54:07;;;;;;;9.38;1.60;;;19.00;99.90;;;;;;5070975;28;20081;-88
2022/09/14 09:56:37;;;;;;;7.45;1.35;;;19.00;99.90;;;;;;5094587;28;20130;-88
2022/09/14 09:59:26;;;;;;;8.40;1.58;;;18.90;99.90;;;;;;5092408;28;20047;-87
2022/09/14 10:01:54;;;;;;;10.05;1.45;;;18.90;99.90;;;;;;5076160;28;20040;-87
2022/09/14 10:04:29;;;;;;;7.95;1.40;;;18.80;99.90;;;;;;5073807;28;20039;-88
2022/09/14 10:06:56;;;;;;;8.23;2.03;;;18.80;99.90;;;;;;5083616;28;20079;-87
2022/09/14 10:09:27;;;;;;;5.88;1.40;;;18.80;99.90;;;;;;5086103;28;20051;-87
2022/09/14 10:12:02;;;;;;;6.38;1.50;;;18.80;99.90;;;;;;5071258;28;20051;-88
2022/09/14 10:14:33;;;;;;;5.93;1.13;;;18.80;99.90;;;;;;5081930;28;20043;-87
2022/09/14 10:17:20;;;;;;;4.70;1.10;;;18.90;99.90;;;;;;5090678;28;20043;-87
2022/09/14 10:19:52;;;;;;;4.63;1.15;;;19.00;99.90;;;;;;5073068;28;20134;-86
2022/09/14 10:22:32;;;;;;;10.55;1.40;;;19.00;99.90;;;;;;5084671;28;20101;-87
2022/09/14 10:25:00;;;;;;;7.95;1.42;;;19.10;99.90;;;;;;5078498;28;20186;-87
2022/09/14 10:27:44;;;;;;;7.95;1.40;;;19.20;99.90;;;;;;5074287;28;20047;-88
2022/09/14 10:30:35;;;;;;;5.78;1.13;;;19.20;99.80;;;;;;5071253;28;20451;-87
2022/09/14 10:33:04;;;;;;;7.25;1.42;;;19.30;99.90;;;;;;5093815;28;20047;-86
2022/09/14 10:36:10;;;;;;;10.63;1.55;;;19.40;99.90;;;;;;5086570;28;20218;-86
2022/09/14 10:38:44;;;;;;;5.13;1.42;;;19.50;99.90;;;;;;5074653;28;20059;-86
2022/09/14 10:41:26;;;;;;;5.72;1.50;;;19.50;99.50;;;;;;5091160;28;20043;-86
2022/09/14 10:43:57;;;;;;;8.57;1.90;;;19.60;99.80;;;;;;5073112;28;20081;-86
2022/09/14 10:46:31;;;;;;;6.95;1.83;;;19.70;98.80;;;;;;5063258;28;20484;-86
2022/09/14 10:49:00;;;;;;;9.88;1.77;;;19.70;99.00;;;;;;5086688;28;20040;-86
2022/09/14 10:51:32;;;;;;;5.90;1.63;;;19.70;98.50;;;;;;5073890;28;20050;-85
2022/09/14 10:54:05;;;;;;;4.95;1.33;;;19.60;98.20;;;;;;5073349;28;20124;-86
2022/09/14 10:56:49;;;;;;;9.15;1.73;;;19.50;98.70;;;;;;5079737;28;20048;-87
2022/09/14 10:59:51;;;;;;;7.65;1.88;;;19.50;98.10;;;;;;5085555;28;20480;-86
2022/09/14 11:02:26;;;;;;;8.40;1.52;;;19.30;98.10;;;;;;5075802;28;20051;-86
2022/09/14 11:05:03;;;;;;;7.60;1.77;;;19.20;98.90;;;;;;5091683;27;20491;-86
2022/09/14 11:08:16;;;;;;;10.40;1.77;;;19.30;99.30;;;;;;5097102;28;20031;-87
2022/09/14 11:11:04;;;;;;;8.45;1.85;;;19.40;99.70;;;;;;5082870;28;20583;-86
2022/09/14 11:13:47;;;;;;;12.52;1.70;;;19.30;99.10;;;;;;5091524;28;20483;-86
2022/09/14 11:16:26;;;;;;;8.73;1.60;;;19.40;98.90;;;;;;5072971;28;20095;-87
2022/09/14 11:19:11;;;;;;;6.50;1.38;;;19.30;98.90;;;;;;5111582;27;20048;-88
2022/09/14 11:22:12;;;;;;;7.90;1.60;;;19.40;99.30;;;;;;5105112;27;20044;-87
2022/09/14 11:24:51;;;;;;;7.25;1.50;;;19.50;98.90;;;;;;5065606;28;20079;-85
2022/09/14 11:27:19;;;;;;;8.70;1.65;;;19.80;99.10;;;;;;5092439;28;20173;-87
2022/09/14 11:30:03;;;;;;;6.85;1.85;;;20.00;98.70;;;;;;5089767;28;20040;-87
2022/09/14 11:32:44;;;;;;;4.30;1.50;;;20.10;97.50;;;;;;5098911;28;20044;-88
2022/09/14 11:35:18;;;;;;;4.95;1.50;;;20.10;97.60;;;;;;5076408;28;20051;-85
2022/09/14 11:37:49;;;;;;;8.93;1.60;;;20.20;97.30;;;;;;5088797;28;20416;-86
2022/09/14 11:40:39;;;;;;;5.95;1.58;;;20.30;97.00;;;;;;5074764;28;20376;-86
2022/09/14 11:43:31;;;;;;;5.30;1.02;;;20.50;96.40;;;;;;5077346;28;20073;-85
2022/09/14 11:46:11;;;;;;;4.10;1.40;;;20.60;94.00;;;;;;5078514;28;20551;-85
2022/09/14 11:48:51;;;;;;;6.30;1.50;;;20.70;95.00;;;;;;5088132;28;20040;-83
2022/09/14 11:51:22;;;;;;;8.57;1.50;;;20.80;94.60;;;;;;5094207;28;20086;-85
2022/09/14 11:53:51;;;;;;;9.60;1.40;;;20.90;94.10;;;;;;5069258;28;20047;-85
2022/09/14 11:56:28;;;;;;;7.18;1.55;;;21.00;93.30;;;;;;5089175;28;20483;-85
2022/09/14 11:58:57;;;;;;;6.90;1.30;;;20.90;93.90;;;;;;5062126;27;20157;-85
2022/09/14 12:01:27;;;;;;;7.85;1.30;;;20.80;93.40;;;;;;5076977;28;20141;-85
2022/09/14 12:03:58;;;;;;;9.48;1.67;;;20.70;92.80;;;;;;5064850;28;20130;-85
2022/09/14 12:06:30;;;;;;;8.43;1.75;;;20.60;93.30;;;;;;5090737;28;20387;-85
2022/09/14 12:09:19;;;;;;;6.15;1.38;;;20.70;93.80;;;;;;5085590;28;20551;-85
2022/09/14 12:11:59;;;;;;;8.85;1.35;;;20.90;93.20;;;;;;5083668;27;20039;-84
2022/09/14 12:14:30;;;;;;;6.60;1.58;;;20.90;93.30;;;;;;5092395;28;20048;-85
2022/09/14 12:17:19;;;;;;;5.72;1.35;;;20.90;93.70;;;;;;5076031;28;20400;-85
2022/09/14 12:19:48;;;;;;;8.80;1.52;;;20.80;93.50;;;;;;5066062;28;20052;-86
2022/09/14 12:22:29;;;;;;;3.92;1.13;;;20.70;93.80;;;;;;5069732;28;20040;-86
2022/09/14 12:25:03;;;;;;;4.82;1.42;;;20.70;94.10;;;;;;5075716;28;20056;-85
2022/09/14 12:27:31;;;;;;;6.25;1.42;;;20.60;92.60;;;;;;5076796;28;20536;-85
2022/09/14 12:29:58;;;;;;;4.90;1.25;;;20.60;92.60;;;;;;5074643;28;20043;-84
2022/09/14 12:32:42;;;;;;;6.38;1.30;;;20.70;92.60;;;;;;5064380;28;20044;-85
2022/09/14 12:35:32;;;;;;;5.45;1.40;;;20.80;92.30;;;;;;5072028;28;20399;-85
2022/09/14 12:37:58;;;;;;;4.57;1.50;;;20.80;91.80;;;;;;5092895;28;20035;-84
2022/09/14 12:40:35;;;;;;;9.48;1.55;;;20.70;92.00;;;;;;5089796;28;20130;-85
2022/09/14 12:43:32;;;;;;;6.20;1.20;;;20.70;92.30;;;;;;5091566;28;20047;-85
2022/09/14 12:46:19;;;;;;;8.23;1.40;;;20.60;92.50;;;;;;5090985;28;20043;-85
2022/09/14 12:48:45;;;;;;;5.70;1.40;;;20.50;92.90;;;;;;5075168;28;20052;-85
2022/09/14 12:51:30;;;;;;;5.43;1.40;;;20.40;92.70;;;;;;5092118;28;20050;-85
2022/09/14 12:54:09;;;;;;;5.32;1.42;;;20.40;92.70;;;;;;5088950;28;20047;-85
2022/09/14 12:56:38;;;;;;;5.40;1.58;;;20.30;93.00;;;;;;5077644;28;20063;-85
2022/09/14 12:59:03;;;;;;;6.13;1.33;;;20.30;93.50;;;;;;5092845;28;20051;-85
2022/09/14 13:02:01;;;;;;;7.55;1.88;;;20.30;94.00;;;;;;5088481;27;20036;-85
2022/09/14 13:04:31;;;;;;;6.70;1.40;;;20.50;93.00;;;;;;5005734;28;20970;-85
2022/09/14 13:07:00;;;;;;;5.45;1.50;;;20.50;92.80;;;;;;5097571;28;20143;-85
2022/09/14 13:09:28;;;;;;;8.90;1.50;;;20.60;92.60;;;;;;5068059;28;20044;-85
2022/09/14 13:12:03;;;;;;;18.25;4.32;;;20.60;92.80;;;;;;5095925;28;20118;-85
2022/09/14 13:14:34;;;;;;;7.78;2.20;;;20.60;93.30;;;;;;5095618;27;20040;-84